Time;durP1;ratioP1;P1;durP2;ratioP2;P2;SDS_P1;SDS_P2;PMS_P1;PMS_P2;Temp;Humidity;BMP_temperature;BMP_pressure;BME280_temperature;BME280_humidity;BME280_pressure;Samples;Min_cycle;Max_cycle;Signal;HPM_P1;HPM_P2
2022/08/17 00:00:10;;;;;;;34.75;20.08;;;18.80;69.40;;;;;;4080557;29;20412;-85
2022/08/17 00:02:11;;;;;;;29.80;19.20;;;18.80;69.50;;;;;;4094347;28;20106;-86
2022/08/17 00:04:12;;;;;;;30.77;20.63;;;18.70;69.50;;;;;;4080807;29;20031;-86
2022/08/17 00:06:24;;;;;;;28.65;20.45;;;18.70;69.50;;;;;;4103606;28;20528;-86
2022/08/17 00:08:36;;;;;;;31.25;19.92;;;18.70;69.60;;;;;;4085535;29;20085;-86
2022/08/17 00:10:37;;;;;;;31.65;20.27;;;18.70;69.40;;;;;;4082592;29;20030;-85
2022/08/17 00:12:41;;;;;;;36.00;22.75;;;18.70;69.40;;;;;;4101382;28;20108;-85
2022/08/17 00:14:42;;;;;;;31.50;21.63;;;18.60;69.40;;;;;;4103720;28;20023;-86
2022/08/17 00:16:52;;;;;;;33.20;20.42;;;18.60;69.40;;;;;;4101007;28;20036;-86
2022/08/17 00:18:52;;;;;;;36.95;21.38;;;18.60;69.40;;;;;;4116121;28;20041;-86
2022/08/17 00:20:55;;;;;;;34.85;20.38;;;18.60;69.40;;;;;;4103046;28;20031;-85
2022/08/17 00:23:06;;;;;;;37.35;20.10;;;18.60;70.10;;;;;;4100471;28;20071;-86
2022/08/17 00:25:11;;;;;;;27.75;17.63;;;18.50;69.40;;;;;;4102157;28;20031;-86
2022/08/17 00:27:12;;;;;;;29.80;18.42;;;18.50;69.20;;;;;;4100712;28;20031;-85
2022/08/17 00:29:13;;;;;;;30.02;20.20;;;18.50;69.30;;;;;;4095811;28;20024;-85
2022/08/17 00:31:14;;;;;;;31.52;20.65;;;18.50;69.30;;;;;;4083340;29;20450;-86
2022/08/17 00:33:18;;;;;;;30.75;20.90;;;18.50;69.30;;;;;;4086478;28;20137;-85
2022/08/17 00:35:26;;;;;;;31.55;20.85;;;18.40;69.10;;;;;;4104252;28;20098;-84
2022/08/17 00:37:27;;;;;;;32.65;20.10;;;18.40;69.00;;;;;;4100463;28;20360;-86
2022/08/17 00:39:27;;;;;;;30.75;19.48;;;18.40;69.10;;;;;;4081097;29;20122;-86
2022/08/17 00:41:28;;;;;;;31.17;22.33;;;18.40;69.20;;;;;;4100836;28;20055;-85
2022/08/17 00:43:32;;;;;;;38.83;24.88;;;18.40;69.30;;;;;;4085158;29;20058;-84
2022/08/17 00:45:33;;;;;;;44.38;25.23;;;18.30;69.30;;;;;;4103027;28;20824;-85
2022/08/17 00:47:33;;;;;;;42.63;26.17;;;18.30;69.50;;;;;;4099281;28;20023;-85
2022/08/17 00:49:34;;;;;;;50.17;28.90;;;18.30;69.70;;;;;;4103082;28;20038;-86
2022/08/17 00:51:47;;;;;;;44.85;26.83;;;18.30;70.00;;;;;;4091589;28;20115;-87
2022/08/17 00:54:00;;;;;;;40.00;24.77;;;18.30;70.30;;;;;;4080052;29;20447;-86
2022/08/17 00:56:05;;;;;;;34.78;23.58;;;18.30;70.40;;;;;;4099402;28;20297;-85
2022/08/17 00:58:07;;;;;;;47.90;28.73;;;18.20;70.50;;;;;;4080221;29;20071;-86
2022/08/17 01:00:20;;;;;;;45.05;28.88;;;18.20;70.70;;;;;;4081268;29;20094;-85
2022/08/17 01:02:21;;;;;;;45.60;27.35;;;18.20;71.20;;;;;;4085249;29;20032;-84
2022/08/17 01:04:23;;;;;;;51.30;28.70;;;18.20;71.20;;;;;;4095660;28;20422;-86
2022/08/17 01:06:24;;;;;;;40.20;26.30;;;18.20;71.30;;;;;;4096498;28;20023;-86
2022/08/17 01:08:28;;;;;;;39.30;24.85;;;18.20;71.50;;;;;;4081962;29;20070;-85
2022/08/17 01:10:38;;;;;;;44.38;25.67;;;18.20;71.60;;;;;;4079411;29;20035;-86
2022/08/17 01:12:39;;;;;;;43.35;26.58;;;18.20;71.60;;;;;;4081087;29;20043;-86
2022/08/17 01:14:40;;;;;;;41.03;26.88;;;18.10;71.70;;;;;;4116998;28;20033;-85
2022/08/17 01:16:41;;;;;;;38.63;25.05;;;18.10;71.80;;;;;;4099642;28;20027;-86
2022/08/17 01:18:44;;;;;;;40.20;24.40;;;18.10;71.90;;;;;;4079289;29;20046;-86
2022/08/17 01:20:50;;;;;;;45.35;25.42;;;18.10;71.90;;;;;;4099326;28;20454;-86
2022/08/17 01:22:52;;;;;;;37.08;24.48;;;18.10;72.10;;;;;;4098966;28;20034;-85
2022/08/17 01:24:58;;;;;;;39.13;24.77;;;18.10;72.10;;;;;;4085376;29;20545;-85
2022/08/17 01:26:59;;;;;;;39.72;25.17;;;18.00;72.20;;;;;;4098135;28;20032;-85
2022/08/17 01:29:04;;;;;;;41.47;25.95;;;18.00;72.30;;;;;;4089558;28;20030;-85
2022/08/17 01:31:06;;;;;;;35.75;23.33;;;18.00;72.40;;;;;;4084578;29;20020;-86
2022/08/17 01:33:10;;;;;;;33.45;22.95;;;18.00;72.40;;;;;;4101402;28;20031;-87
2022/08/17 01:35:10;;;;;;;;;;;18.00;72.60;;;;;;4114713;28;20054;-86
2022/08/17 01:37:13;;;;;;;45.60;25.27;;;18.00;73.70;;;;;;4066595;29;19911;-86
2022/08/17 01:39:33;;;;;;;38.10;27.23;;;18.00;72.40;;;;;;4099194;28;20042;-86
2022/08/17 01:41:36;;;;;;;38.45;23.70;;;18.00;72.60;;;;;;4086443;29;20034;-85
2022/08/17 01:43:57;;;;;;;42.40;25.83;;;17.90;72.50;;;;;;4104465;28;20034;-85
2022/08/17 01:46:01;;;;;;;41.67;24.02;;;17.90;73.10;;;;;;4099497;28;20043;-86
2022/08/17 01:48:12;;;;;;;32.30;22.45;;;17.90;72.90;;;;;;4082880;28;20019;-85
2022/08/17 01:50:17;;;;;;;33.75;20.95;;;17.90;72.90;;;;;;4103316;28;20185;-85
2022/08/17 01:52:20;;;;;;;36.95;24.00;;;17.90;73.10;;;;;;4081218;29;20016;-85
2022/08/17 01:54:23;;;;;;;35.38;22.25;;;17.90;73.20;;;;;;4062936;29;20461;-86
2022/08/17 01:56:25;;;;;;;35.53;21.90;;;17.80;73.10;;;;;;4110602;28;20031;-86
2022/08/17 01:58:26;;;;;;;35.28;22.23;;;17.80;72.80;;;;;;4085379;29;20598;-86
2022/08/17 02:00:26;;;;;;;34.35;22.25;;;17.80;72.80;;;;;;4082231;28;20043;-86
2022/08/17 02:02:27;;;;;;;43.20;25.10;;;17.80;72.80;;;;;;4084769;28;20031;-85
2022/08/17 02:04:28;;;;;;;37.20;22.60;;;17.80;72.90;;;;;;4096031;28;20126;-85
2022/08/17 02:06:33;;;;;;;35.30;22.38;;;17.80;73.00;;;;;;4098391;28;20032;-86
2022/08/17 02:08:34;;;;;;;45.95;24.60;;;17.70;73.00;;;;;;4097229;28;20023;-85
2022/08/17 02:10:35;;;;;;;31.45;21.55;;;17.70;73.10;;;;;;4085910;29;20418;-85
2022/08/17 02:12:36;;;;;;;31.20;20.90;;;17.70;73.30;;;;;;4086717;29;20032;-85
2022/08/17 02:14:37;;;;;;;27.77;19.42;;;17.70;73.40;;;;;;4066400;29;20480;-85
2022/08/17 02:16:39;;;;;;;37.47;21.33;;;17.70;73.60;;;;;;4100752;28;20030;-85
2022/08/17 02:18:40;;;;;;;41.47;21.33;;;17.70;73.80;;;;;;4082137;29;20065;-86
2022/08/17 02:20:42;;;;;;;30.67;19.48;;;17.70;73.90;;;;;;4101141;28;20283;-85
2022/08/17 02:22:45;;;;;;;30.75;20.58;;;17.70;74.00;;;;;;4101210;28;20059;-86
2022/08/17 02:24:46;;;;;;;32.60;21.27;;;17.70;74.10;;;;;;4086477;28;20047;-86
2022/08/17 02:26:47;;;;;;;31.25;20.75;;;17.70;74.20;;;;;;4103373;28;20106;-85
2022/08/17 02:28:47;;;;;;;30.08;20.17;;;17.70;74.40;;;;;;4114347;28;20034;-85
2022/08/17 02:30:48;;;;;;;36.45;21.67;;;17.70;74.50;;;;;;4112031;28;20576;-85
2022/08/17 02:32:51;;;;;;;33.53;19.52;;;17.70;74.60;;;;;;4068142;29;20090;-86
2022/08/17 02:34:52;;;;;;;37.97;21.60;;;17.70;74.70;;;;;;4097943;28;20074;-86
2022/08/17 02:36:53;;;;;;;39.47;21.42;;;17.70;74.90;;;;;;4089127;29;20035;-86
2022/08/17 02:38:54;;;;;;;46.35;23.17;;;17.70;75.00;;;;;;4101653;28;20035;-85
2022/08/17 02:40:57;;;;;;;54.63;24.42;;;17.70;75.20;;;;;;4086685;29;20106;-85
2022/08/17 02:42:58;;;;;;;38.33;22.70;;;17.70;75.40;;;;;;4106209;28;20019;-86
2022/08/17 02:45:00;;;;;;;42.38;23.40;;;17.80;75.40;;;;;;4083108;28;20074;-85
2022/08/17 02:47:01;;;;;;;49.95;24.90;;;17.80;76.20;;;;;;4112562;28;20086;-86
2022/08/17 02:49:03;;;;;;;45.30;26.40;;;17.80;75.40;;;;;;4097385;28;20110;-86
2022/08/17 02:51:04;;;;;;;58.22;26.25;;;17.80;75.20;;;;;;4096874;28;20035;-86
2022/08/17 02:53:04;;;;;;;52.25;27.77;;;17.80;75.10;;;;;;4100721;28;20105;-85
2022/08/17 02:55:14;;;;;;;49.22;26.10;;;17.80;75.10;;;;;;4079432;29;20024;-86
2022/08/17 02:57:15;;;;;;;43.95;24.55;;;17.80;75.10;;;;;;4095801;28;20482;-85
2022/08/17 02:59:16;;;;;;;42.78;25.33;;;17.70;74.90;;;;;;4100251;28;20026;-86
2022/08/17 03:01:16;;;;;;;49.22;29.00;;;17.70;75.00;;;;;;4081944;28;20027;-86
2022/08/17 03:03:17;;;;;;;57.00;28.30;;;17.70;75.30;;;;;;4104964;28;20063;-87
2022/08/17 03:05:21;;;;;;;49.92;25.50;;;17.70;75.20;;;;;;4128462;28;20209;-87
2022/08/17 03:07:22;;;;;;;42.15;25.63;;;17.70;75.90;;;;;;4116624;28;20015;-85
2022/08/17 03:09:22;;;;;;;41.00;25.08;;;17.70;75.30;;;;;;4114736;28;20030;-85
2022/08/17 03:11:23;;;;;;;44.70;26.00;;;17.70;75.40;;;;;;4099460;28;20087;-85
2022/08/17 03:13:26;;;;;;;44.75;26.55;;;17.70;75.60;;;;;;4113767;28;20030;-86
2022/08/17 03:15:30;;;;;;;47.65;26.35;;;17.70;75.60;;;;;;4114679;28;20063;-87
2022/08/17 03:17:31;;;;;;;38.13;23.35;;;17.60;75.60;;;;;;4094860;29;20026;-86
2022/08/17 03:19:32;;;;;;;32.63;21.88;;;17.70;75.70;;;;;;4122978;28;20011;-87
2022/08/17 03:21:32;;;;;;;38.70;23.33;;;17.70;75.80;;;;;;4119405;28;20035;-86
2022/08/17 03:23:39;;;;;;;35.15;22.42;;;17.60;75.80;;;;;;4116088;28;20038;-86
2022/08/17 03:25:42;;;;;;;34.38;22.52;;;17.70;75.90;;;;;;4120526;28;20038;-86
2022/08/17 03:27:42;;;;;;;56.77;22.80;;;17.60;75.90;;;;;;4113534;28;20043;-86
2022/08/17 03:29:43;;;;;;;35.50;21.35;;;17.70;76.00;;;;;;4119572;28;20284;-87
2022/08/17 03:31:45;;;;;;;42.72;22.45;;;17.70;75.90;;;;;;4112216;28;20038;-86
2022/08/17 03:33:47;;;;;;;28.17;19.77;;;17.70;75.90;;;;;;4115479;28;20087;-86
2022/08/17 03:35:47;;;;;;;26.35;19.15;;;17.60;75.80;;;;;;4082270;29;20036;-86
2022/08/17 03:37:48;;;;;;;27.98;18.05;;;17.70;75.90;;;;;;4108608;28;20042;-85
2022/08/17 03:39:49;;;;;;;26.13;17.63;;;17.60;75.80;;;;;;4096728;28;20038;-85
2022/08/17 03:41:50;;;;;;;52.42;18.38;;;17.60;75.80;;;;;;4103104;28;20031;-85
2022/08/17 03:43:51;;;;;;;34.25;17.00;;;17.60;75.80;;;;;;4082848;28;20028;-85
2022/08/17 03:57:59;;;;;;;19.80;13.88;;;17.50;75.10;;;;;;4100265;28;20027;-84
2022/08/17 03:59:59;;;;;;;25.45;13.52;;;17.50;75.10;;;;;;4083818;29;20107;-86
2022/08/17 04:02:07;;;;;;;16.42;13.15;;;17.50;75.10;;;;;;4101402;28;20097;-85
2022/08/17 04:04:17;;;;;;;27.50;15.13;;;17.50;75.10;;;;;;4089710;28;20050;-84
2022/08/17 04:06:18;;;;;;;47.47;15.80;;;17.30;75.10;;;;;;4101134;28;20494;-84
2022/08/17 04:08:19;;;;;;;40.13;15.73;;;17.40;75.10;;;;;;4080871;29;20128;-85
2022/08/17 04:10:20;;;;;;;38.30;15.82;;;17.40;75.10;;;;;;4094256;28;20039;-85
2022/08/17 04:12:22;;;;;;;56.28;15.88;;;17.40;75.00;;;;;;4097634;28;20574;-84
2022/08/17 04:14:23;;;;;;;33.00;15.98;;;17.40;74.90;;;;;;4094989;28;20106;-85
2022/08/17 04:16:24;;;;;;;28.83;16.42;;;17.30;74.80;;;;;;4078495;29;20585;-85
2022/08/17 04:18:25;;;;;;;34.78;16.52;;;17.30;74.90;;;;;;4097289;28;20059;-85
2022/08/17 04:20:27;;;;;;;52.50;18.15;;;17.40;74.90;;;;;;4097830;28;20036;-86
2022/08/17 04:22:27;;;;;;;44.10;17.50;;;17.30;74.80;;;;;;4080935;28;20031;-85
2022/08/17 04:24:28;;;;;;;26.40;17.38;;;17.30;74.70;;;;;;4097910;28;20403;-85
2022/08/17 04:26:29;;;;;;;30.45;18.52;;;17.20;74.60;;;;;;4061110;29;20104;-86
2022/08/17 04:28:30;;;;;;;29.92;16.70;;;17.20;74.80;;;;;;4095645;28;20030;-86
2022/08/17 04:30:32;;;;;;;57.85;19.17;;;17.20;74.90;;;;;;4095080;28;20117;-85
2022/08/17 04:32:50;;;;;;;40.53;19.67;;;17.20;75.00;;;;;;4098150;28;20038;-85
2022/08/17 04:34:51;;;;;;;40.85;17.55;;;17.20;75.40;;;;;;4094738;28;20039;-86
2022/08/17 04:36:52;;;;;;;58.28;19.17;;;17.10;75.10;;;;;;4100719;28;20414;-86
2022/08/17 04:38:53;;;;;;;28.02;17.70;;;17.10;75.40;;;;;;4098803;28;20117;-86
2022/08/17 04:43:18;;;;;;;29.08;17.55;;;17.10;75.40;;;;;;4093474;28;20046;-86
2022/08/17 04:45:18;;;;;;;31.83;18.40;;;17.10;75.50;;;;;;4093575;28;20028;-85
2022/08/17 04:47:19;;;;;;;52.08;17.85;;;17.00;75.70;;;;;;4074646;29;20090;-84
2022/08/17 04:49:23;;;;;;;31.38;16.75;;;17.10;75.80;;;;;;4101860;28;20560;-85
2022/08/17 04:51:37;;;;;;;33.70;17.08;;;17.10;76.00;;;;;;4097342;28;20039;-86
2022/08/17 04:53:40;;;;;;;73.30;18.52;;;17.10;76.10;;;;;;4075497;29;20265;-86
2022/08/17 04:55:41;;;;;;;34.60;17.67;;;17.00;76.10;;;;;;4112565;28;20485;-86
2022/08/17 04:57:42;;;;;;;27.73;17.35;;;17.10;76.20;;;;;;4093114;28;20067;-85
2022/08/17 05:00:24;;;;;;;26.15;17.35;;;17.20;76.50;;;;;;4095944;28;20031;-86
2022/08/17 05:02:31;;;;;;;40.72;19.95;;;17.20;77.10;;;;;;4081484;28;20035;-86
2022/08/17 05:04:42;;;;;;;65.78;20.45;;;17.10;76.60;;;;;;4116148;28;20532;-86
2022/08/17 05:06:43;;;;;;;54.20;19.77;;;17.20;76.70;;;;;;4086526;29;20519;-86
2022/08/17 05:08:44;;;;;;;51.17;21.45;;;17.10;76.70;;;;;;4106798;28;20019;-86
2022/08/17 05:10:46;;;;;;;32.90;18.88;;;17.20;76.70;;;;;;4088464;28;20054;-87
2022/08/17 05:13:08;;;;;;;31.85;18.60;;;17.20;76.70;;;;;;4082589;29;20047;-87
2022/08/17 05:15:14;;;;;;;29.42;19.38;;;17.20;77.00;;;;;;4099697;28;20031;-86
2022/08/17 05:17:15;;;;;;;30.35;20.42;;;17.20;77.00;;;;;;4068853;29;20546;-87
2022/08/17 05:19:16;;;;;;;27.63;19.63;;;17.20;77.20;;;;;;4120469;28;20096;-86
2022/08/17 05:21:18;;;;;;;29.58;20.50;;;17.20;77.30;;;;;;4088489;29;20087;-87
2022/08/17 05:23:23;;;;;;;28.90;20.00;;;17.20;77.40;;;;;;4084570;29;20061;-86
2022/08/17 05:25:29;;;;;;;26.48;19.27;;;17.30;77.60;;;;;;4087978;28;20497;-86
2022/08/17 05:27:31;;;;;;;27.42;19.00;;;17.30;77.70;;;;;;4099289;28;20039;-87
2022/08/17 05:29:32;;;;;;;29.25;20.13;;;17.30;77.80;;;;;;4088553;29;20340;-85
2022/08/17 05:31:33;;;;;;;25.73;18.60;;;17.30;77.90;;;;;;4084232;29;20027;-86
2022/08/17 05:33:36;;;;;;;25.70;18.40;;;17.40;78.10;;;;;;4100729;28;20051;-86
2022/08/17 05:35:41;;;;;;;26.70;19.60;;;17.40;78.10;;;;;;4084573;28;20702;-85
2022/08/17 05:37:43;;;;;;;31.70;20.63;;;17.50;78.30;;;;;;4071756;29;20028;-86
2022/08/17 05:39:44;;;;;;;29.73;20.58;;;17.50;78.10;;;;;;4080580;29;20032;-87
2022/08/17 05:41:46;;;;;;;28.13;20.45;;;17.50;78.00;;;;;;4097042;28;20035;-87
2022/08/17 05:43:47;;;;;;;30.63;19.10;;;17.50;78.00;;;;;;4093384;28;20036;-86
2022/08/17 05:45:56;;;;;;;24.13;17.13;;;17.60;78.10;;;;;;4086457;29;20036;-86
2022/08/17 05:47:58;;;;;;;26.73;17.20;;;17.60;78.10;;;;;;4116539;28;20031;-87
2022/08/17 05:50:04;;;;;;;25.95;18.17;;;17.70;78.20;;;;;;4096204;28;20057;-86
2022/08/17 05:52:06;;;;;;;25.02;18.15;;;17.70;78.20;;;;;;4110077;28;20122;-87
2022/08/17 05:54:44;;;;;;;24.60;17.45;;;17.70;78.30;;;;;;4085560;28;20539;-87
2022/08/17 06:02:59;;;;;;;27.00;18.40;;;17.90;78.90;;;;;;4432511;23;20063;-86
2022/08/17 06:05:43;;;;;;;30.77;18.88;;;18.00;80.00;;;;;;4095692;28;20027;-85
2022/08/17 06:08:26;;;;;;;29.42;20.20;;;17.90;80.10;;;;;;4089839;28;20035;-86
2022/08/17 06:14:09;;;;;;;26.70;18.45;;;18.30;80.60;;;;;;4074628;28;20105;-85
2022/08/17 06:16:17;;;;;;;29.20;18.80;;;18.40;80.40;;;;;;4099052;28;20506;-86
2022/08/17 06:18:20;;;;;;;30.95;20.13;;;18.40;80.00;;;;;;4063580;29;20032;-85
2022/08/17 06:20:23;;;;;;;26.45;19.33;;;18.50;80.10;;;;;;4080142;29;20074;-86
2022/08/17 06:22:32;;;;;;;27.20;19.02;;;18.60;80.10;;;;;;4081059;29;20031;-86
2022/08/17 06:24:42;;;;;;;26.33;19.65;;;18.60;80.30;;;;;;4079776;29;20123;-85
2022/08/17 06:26:44;;;;;;;26.80;17.15;;;18.70;80.50;;;;;;4077232;29;20067;-86
2022/08/17 06:28:58;;;;;;;30.73;19.88;;;18.80;80.30;;;;;;4088130;28;20035;-86
2022/08/17 06:31:07;;;;;;;25.27;17.88;;;18.90;80.50;;;;;;4092759;28;20478;-87
2022/08/17 06:33:19;;;;;;;24.83;18.13;;;19.00;80.10;;;;;;4095111;28;20035;-87
2022/08/17 06:35:38;;;;;;;22.67;17.40;;;18.90;79.90;;;;;;4079855;29;20142;-87
2022/08/17 06:38:16;;;;;;;24.70;17.35;;;19.10;79.80;;;;;;4092865;28;20728;-87
2022/08/17 06:40:29;;;;;;;24.88;16.92;;;19.20;79.50;;;;;;4104454;28;20019;-86
2022/08/17 06:43:03;;;;;;;25.38;16.83;;;19.30;79.50;;;;;;4109927;28;20018;-87
2022/08/17 06:45:16;;;;;;;25.25;18.10;;;19.30;79.50;;;;;;4069625;29;20039;-86
2022/08/17 06:47:33;;;;;;;28.40;19.45;;;19.40;79.50;;;;;;4073536;29;20024;-86
2022/08/17 06:50:14;;;;;;;32.38;21.10;;;19.50;79.60;;;;;;4095901;28;20030;-86
2022/08/17 06:52:27;;;;;;;26.58;19.10;;;19.50;79.60;;;;;;4077139;29;20126;-87
2022/08/17 06:54:46;;;;;;;38.85;21.40;;;19.60;79.50;;;;;;4103095;28;20682;-87
2022/08/17 06:57:06;;;;;;;35.90;22.02;;;19.70;79.60;;;;;;4076935;29;20075;-87
2022/08/17 06:59:18;;;;;;;32.47;20.38;;;19.80;79.60;;;;;;4092587;28;20536;-87
2022/08/17 07:01:30;;;;;;;36.45;20.73;;;19.90;79.20;;;;;;4080872;29;20036;-87
2022/08/17 07:04:15;;;;;;;30.27;19.90;;;20.00;78.80;;;;;;4094843;28;20106;-87
2022/08/17 07:06:39;;;;;;;28.38;18.90;;;20.00;78.40;;;;;;4072034;29;20043;-87
2022/08/17 07:09:16;;;;;;;28.50;18.38;;;20.10;78.30;;;;;;4091038;28;20063;-86
2022/08/17 07:11:29;;;;;;;26.60;18.40;;;20.20;78.10;;;;;;4092605;28;20019;-87
2022/08/17 07:13:44;;;;;;;30.05;19.80;;;20.20;77.90;;;;;;4091015;28;20034;-87
2022/08/17 07:15:48;;;;;;;31.63;20.73;;;20.40;77.50;;;;;;4075265;29;20035;-86
2022/08/17 07:17:52;;;;;;;26.33;18.70;;;20.40;77.30;;;;;;4077675;29;20078;-86
2022/08/17 07:20:20;;;;;;;26.63;18.20;;;20.50;77.00;;;;;;4079109;29;20030;-86
2022/08/17 07:22:40;;;;;;;28.45;18.63;;;20.50;76.40;;;;;;4062598;29;20575;-86
2022/08/17 07:24:57;;;;;;;27.38;18.27;;;20.60;76.30;;;;;;4089833;28;20034;-87
2022/08/17 07:27:10;;;;;;;28.70;18.27;;;20.70;76.00;;;;;;4108205;28;20721;-88
2022/08/17 07:29:16;;;;;;;30.27;20.17;;;20.70;75.80;;;;;;4078343;29;20102;-87
2022/08/17 07:31:17;;;;;;;30.80;20.50;;;20.80;75.70;;;;;;4078087;29;20063;-88
2022/08/17 07:33:28;;;;;;;36.58;21.50;;;20.90;75.50;;;;;;4077911;29;20620;-87
2022/08/17 07:35:29;;;;;;;29.77;18.45;;;20.90;74.90;;;;;;4091268;28;20063;-87
2022/08/17 07:37:32;;;;;;;28.55;19.15;;;20.90;73.90;;;;;;4079279;29;20836;-87
2022/08/17 07:39:38;;;;;;;30.52;18.00;;;21.00;73.00;;;;;;4079290;29;20420;-87
2022/08/17 07:41:41;;;;;;;25.85;16.83;;;21.00;73.20;;;;;;4107682;28;20082;-88
2022/08/17 07:43:42;;;;;;;26.02;17.05;;;21.00;73.30;;;;;;4079464;29;20070;-87
2022/08/17 07:48:25;;;;;;;27.35;16.40;;;21.20;73.10;;;;;;4079552;29;20032;-87
2022/08/17 07:50:28;;;;;;;29.73;19.38;;;21.20;73.20;;;;;;4077942;29;20024;-87
2022/08/17 07:52:30;;;;;;;;;;;21.20;72.40;;;;;;4075743;29;20101;-87
2022/08/17 07:54:35;;;;;;;32.60;19.23;;;21.30;72.40;;;;;;4091759;28;19957;-87
2022/08/17 07:56:39;;;;;;;28.73;16.02;;;21.40;72.30;;;;;;4078698;29;20024;-85
2022/08/17 07:58:41;;;;;;;22.83;14.95;;;21.50;72.40;;;;;;4077696;29;20035;-86
2022/08/17 08:00:42;;;;;;;22.67;14.60;;;21.60;72.20;;;;;;4075625;29;20040;-87
2022/08/17 08:02:56;;;;;;;20.23;14.63;;;21.60;72.10;;;;;;4078430;29;20183;-86
2022/08/17 08:05:22;;;;;;;26.40;16.50;;;21.70;71.50;;;;;;4062868;29;20108;-88
2022/08/17 08:07:27;;;;;;;29.73;15.95;;;21.80;70.80;;;;;;4073426;29;20131;-86
2022/08/17 08:09:33;;;;;;;28.90;20.30;;;21.90;70.70;;;;;;4092467;28;20023;-86
2022/08/17 08:11:35;;;;;;;28.13;17.38;;;21.90;69.00;;;;;;4096723;28;20090;-86
2022/08/17 08:13:44;;;;;;;26.33;17.05;;;22.00;68.90;;;;;;4076435;29;20023;-86
2022/08/17 08:16:10;;;;;;;23.58;15.70;;;22.00;68.20;;;;;;4078776;29;20039;-86
2022/08/17 08:18:36;;;;;;;25.25;16.58;;;22.10;68.00;;;;;;4094249;28;20023;-87
2022/08/17 08:20:54;;;;;;;21.85;14.98;;;22.20;68.30;;;;;;4076422;29;20035;-86
2022/08/17 08:23:22;;;;;;;29.15;17.33;;;22.20;67.30;;;;;;4075785;29;20028;-86
2022/08/17 08:25:39;;;;;;;27.05;17.88;;;22.20;66.00;;;;;;4093414;28;20020;-85
2022/08/17 08:27:51;;;;;;;29.40;15.70;;;22.30;67.10;;;;;;4093664;28;20087;-85
2022/08/17 08:30:13;;;;;;;29.80;17.90;;;22.40;66.90;;;;;;4064985;29;20107;-86
2022/08/17 08:32:44;;;;;;;30.95;22.63;;;22.40;66.50;;;;;;4098225;28;20023;-86
2022/08/17 08:35:39;;;;;;;31.25;20.67;;;22.40;65.50;;;;;;4079411;29;20036;-86
2022/08/17 08:37:48;;;;;;;37.25;20.73;;;22.40;65.60;;;;;;4044233;29;20020;-86
2022/08/17 08:40:22;;;;;;;33.20;20.67;;;22.50;66.00;;;;;;4059503;29;20046;-86
2022/08/17 08:42:50;;;;;;;30.38;17.67;;;22.60;66.40;;;;;;4096733;28;20030;-86
2022/08/17 08:45:17;;;;;;;31.98;21.88;;;22.70;66.10;;;;;;4096509;28;20027;-87
2022/08/17 08:47:58;;;;;;;28.58;17.55;;;22.70;64.30;;;;;;4074064;29;20123;-87
2022/08/17 08:50:21;;;;;;;31.13;19.92;;;22.90;65.80;;;;;;4109448;28;20050;-88
2022/08/17 08:53:20;;;;;;;30.77;19.17;;;22.80;65.30;;;;;;4097493;28;20039;-86
2022/08/17 08:55:46;;;;;;;30.95;18.70;;;22.90;65.30;;;;;;4094925;28;20043;-87
2022/08/17 08:57:54;;;;;;;31.33;20.58;;;23.00;65.40;;;;;;4095857;28;20143;-86
2022/08/17 09:00:20;;;;;;;32.22;19.55;;;23.00;64.60;;;;;;4081225;29;20030;-87
2022/08/17 09:02:30;;;;;;;31.15;20.38;;;23.10;64.30;;;;;;4081009;29;20039;-87
2022/08/17 09:05:22;;;;;;;26.60;18.23;;;23.20;64.40;;;;;;4082225;29;20063;-88
2022/08/17 09:07:49;;;;;;;29.33;19.70;;;23.20;63.50;;;;;;4041627;29;20525;-86
2022/08/17 09:10:18;;;;;;;27.67;17.33;;;23.20;63.70;;;;;;4098105;28;20110;-87
2022/08/17 09:12:44;;;;;;;32.38;16.45;;;23.30;63.40;;;;;;4112125;28;20426;-87
2022/08/17 09:15:00;;;;;;;27.92;16.80;;;23.30;63.60;;;;;;4096697;28;20047;-87
2022/08/17 09:17:20;;;;;;;30.80;17.10;;;23.40;62.90;;;;;;4080156;29;20502;-88
2022/08/17 09:19:55;;;;;;;29.75;15.27;;;23.50;62.90;;;;;;4095255;28;20123;-86
2022/08/17 09:22:32;;;;;;;26.67;18.65;;;23.50;62.50;;;;;;4094202;28;20030;-86
2022/08/17 09:24:55;;;;;;;27.33;18.15;;;23.50;61.60;;;;;;4097362;28;20660;-87
2022/08/17 09:27:20;;;;;;;25.83;16.45;;;23.60;61.10;;;;;;4077876;29;20032;-87
2022/08/17 09:29:35;;;;;;;22.70;15.32;;;23.70;61.20;;;;;;4077435;29;20031;-87
2022/08/17 09:32:02;;;;;;;23.35;15.85;;;23.70;61.20;;;;;;4096523;28;20028;-86
2022/08/17 09:34:14;;;;;;;23.13;13.23;;;23.70;59.60;;;;;;4078799;29;20028;-88
2022/08/17 09:36:26;;;;;;;25.25;17.95;;;23.80;60.70;;;;;;4092272;28;20507;-86
2022/08/17 09:38:45;;;;;;;25.77;14.00;;;23.90;59.80;;;;;;4096072;28;20030;-86
2022/08/17 09:41:01;;;;;;;22.42;14.88;;;23.90;60.50;;;;;;4096304;28;20039;-86
2022/08/17 09:43:15;;;;;;;23.27;14.10;;;23.90;59.80;;;;;;4080725;29;20035;-88
2022/08/17 09:45:39;;;;;;;21.92;15.50;;;24.00;60.60;;;;;;4095679;28;20114;-86
2022/08/17 09:47:58;;;;;;;26.38;16.25;;;24.00;60.20;;;;;;4096158;28;20042;-87
2022/08/17 09:50:19;;;;;;;20.02;13.80;;;24.00;59.90;;;;;;4094360;28;20922;-88
2022/08/17 09:52:28;;;;;;;21.95;14.73;;;24.00;60.00;;;;;;4078659;29;20622;-87
2022/08/17 09:54:36;;;;;;;23.13;12.38;;;24.20;60.20;;;;;;4095109;28;20082;-87
2022/08/17 10:00:27;;;;;;;21.40;12.60;;;24.30;60.30;;;;;;4094267;28;20035;-88
2022/08/17 10:02:44;;;;;;;16.00;9.65;;;24.40;60.30;;;;;;4096905;28;20050;-89
2022/08/17 10:05:07;;;;;;;19.48;11.45;;;24.50;59.80;;;;;;4097310;28;20031;-87
2022/08/17 10:07:24;;;;;;;22.70;11.43;;;24.50;59.40;;;;;;4080390;29;20038;-88
2022/08/17 10:14:42;;;;;;;15.45;10.18;;;24.70;58.70;;;;;;4128677;28;20034;-87
2022/08/17 10:16:54;;;;;;;24.10;11.10;;;24.80;56.90;;;;;;4127841;28;20030;-87
2022/08/17 10:19:19;;;;;;;21.60;9.23;;;24.90;57.00;;;;;;4116437;28;20026;-86
2022/08/17 10:26:42;;;;;;;16.70;10.70;;;24.90;56.70;;;;;;4123982;28;20073;-88
2022/08/17 10:29:19;;;;;;;12.43;8.60;;;24.90;56.10;;;;;;4122520;28;20205;-86
2022/08/17 10:32:03;;;;;;;13.32;7.65;;;24.90;56.60;;;;;;4122580;28;20435;-88
2022/08/17 10:34:33;;;;;;;12.20;8.32;;;24.90;56.60;;;;;;4126481;28;20019;-86
2022/08/17 10:37:13;;;;;;;10.95;7.72;;;25.00;56.60;;;;;;4093490;28;20034;-87
2022/08/17 10:42:48;;;;;;;13.38;9.13;;;25.20;54.80;;;;;;4104115;28;20034;-87
2022/08/17 10:45:39;;;;;;;15.63;7.03;;;25.20;55.40;;;;;;4108342;28;20030;-86
2022/08/17 10:48:02;;;;;;;11.35;7.18;;;25.30;55.10;;;;;;4110791;28;20058;-87
2022/08/17 10:50:43;;;;;;;11.80;6.38;;;25.30;55.40;;;;;;4128159;23;20066;-86
2022/08/17 10:52:54;;;;;;;14.27;7.07;;;25.40;55.30;;;;;;4100218;28;20117;-88
2022/08/17 10:55:16;;;;;;;12.80;6.68;;;25.50;54.90;;;;;;4077390;28;20062;-87
2022/08/17 10:57:26;;;;;;;14.43;6.70;;;25.50;54.50;;;;;;4115733;28;20025;-87
2022/08/17 10:59:38;;;;;;;12.27;7.95;;;25.60;55.20;;;;;;4086900;28;20444;-87
2022/08/17 11:01:42;;;;;;;11.93;7.87;;;25.70;54.60;;;;;;4096042;28;20048;-87
2022/08/17 11:04:26;;;;;;;13.65;7.32;;;25.70;54.80;;;;;;4106352;28;20037;-86
2022/08/17 11:07:02;;;;;;;17.77;7.75;;;25.80;52.90;;;;;;4047480;29;20050;-86
2022/08/17 11:09:40;;;;;;;13.10;7.43;;;25.80;52.70;;;;;;4096491;28;20023;-85
2022/08/17 11:15:30;;;;;;;9.70;5.93;;;25.90;52.10;;;;;;4097281;28;20027;-87
2022/08/17 11:18:00;;;;;;;9.30;6.40;;;25.80;52.10;;;;;;4080804;28;20579;-87
2022/08/17 11:20:36;;;;;;;10.00;5.07;;;25.80;51.30;;;;;;4085595;29;20499;-86
2022/08/17 11:22:49;;;;;;;11.90;6.22;;;25.80;51.40;;;;;;4089526;29;20031;-86
2022/08/17 11:24:53;;;;;;;14.57;6.40;;;25.80;51.30;;;;;;4081311;29;20046;-85
2022/08/17 11:27:27;;;;;;;8.13;5.35;;;25.70;51.10;;;;;;4075433;29;20126;-86
2022/08/17 11:29:45;;;;;;;13.10;6.90;;;25.80;51.50;;;;;;4095801;28;20054;-85
2022/08/17 11:32:26;;;;;;;;;;;;;;;;;;;;;
2022/08/17 11:34:47;;;;;;;12.80;7.32;;;25.80;52.00;;;;;;4099699;28;20106;-88
2022/08/17 11:40:49;;;;;;;13.13;6.32;;;25.70;51.10;;;;;;4063026;29;20040;-85
2022/08/17 11:43:14;;;;;;;15.20;7.95;;;25.70;51.70;;;;;;4033602;29;20842;-85
2022/08/17 11:45:15;;;;;;;12.65;7.72;;;25.70;52.50;;;;;;4091321;28;20077;-86
2022/08/17 11:53:36;;;;;;;15.25;7.43;;;25.70;53.30;;;;;;4100115;28;20038;-86
2022/08/17 11:55:39;;;;;;;16.27;8.40;;;25.70;53.20;;;;;;4099044;28;20024;-88
2022/08/17 11:57:44;;;;;;;16.88;8.55;;;25.70;53.30;;;;;;4078784;29;20067;-86
2022/08/17 11:59:46;;;;;;;12.10;7.57;;;25.60;53.60;;;;;;4087949;28;20035;-86
2022/08/17 12:02:01;;;;;;;13.60;7.97;;;25.60;53.80;;;;;;4095141;28;20118;-86